createdAt,value
2022-10-03T00:04:18.593Z,9.86
2022-10-03T00:09:43.142Z,9.86
2022-10-03T00:15:00.671Z,9.86
2022-10-03T00:20:32.154Z,9.83
2022-10-03T00:25:51.906Z,9.80
2022-10-03T00:30:58.459Z,9.80
2022-10-03T00:36:22.002Z,9.82
2022-10-03T00:41:31.552Z,9.86
2022-10-03T00:46:50.232Z,9.90
2022-10-03T00:52:21.037Z,9.93
2022-10-03T00:57:27.195Z,9.99
2022-10-03T01:02:39.609Z,10.04
2022-10-03T01:08:13.944Z,10.08
2022-10-03T01:14:03.414Z,10.11
2022-10-03T01:19:33.782Z,10.14
2022-10-03T01:25:02.374Z,10.17
2022-10-03T01:30:24.756Z,10.19
2022-10-03T01:35:45.925Z,10.21
2022-10-03T01:41:04.352Z,10.22
2022-10-03T01:46:22.773Z,10.22
2022-10-03T01:51:50.097Z,10.24
2022-10-03T01:57:01.843Z,10.25
2022-10-03T02:02:42.350Z,10.27
2022-10-03T02:08:27.603Z,10.28
2022-10-03T02:13:48.599Z,10.29
2022-10-03T02:18:58.542Z,10.31
2022-10-03T02:24:07.440Z,10.33
2022-10-03T02:29:22.336Z,10.34
2022-10-03T02:34:40.817Z,10.36
2022-10-03T02:40:06.020Z,10.38
2022-10-03T02:45:57.315Z,10.40
2022-10-03T02:51:22.677Z,10.43
2022-10-03T02:57:10.340Z,10.45
2022-10-03T03:02:48.872Z,10.50
2022-10-03T03:08:24.770Z,10.52
2022-10-03T03:13:47.094Z,10.56
2022-10-03T03:19:23.110Z,10.58
2022-10-03T03:24:58.340Z,10.62
2022-10-03T03:30:24.125Z,10.64
2022-10-03T03:35:43.790Z,10.66
2022-10-03T03:41:21.721Z,10.69
2022-10-03T03:46:53.034Z,10.72
2022-10-03T03:52:22.228Z,10.75
2022-10-03T03:57:48.002Z,10.77
2022-10-03T04:03:19.173Z,10.79
2022-10-03T04:08:22.417Z,10.80
2022-10-03T04:13:48.036Z,10.81
2022-10-03T04:19:03.869Z,10.81
2022-10-03T04:24:29.596Z,10.82
2022-10-03T04:30:01.823Z,10.83
2022-10-03T04:35:38.854Z,10.84
2022-10-03T04:40:47.630Z,10.86
2022-10-03T04:46:05.683Z,10.88
2022-10-03T04:51:25.365Z,10.90
2022-10-03T04:56:38.579Z,10.92
2022-10-03T05:01:53.444Z,10.96
2022-10-03T05:07:14.628Z,11.01
2022-10-03T05:13:03.389Z,11.06
2022-10-03T05:18:27.170Z,11.12
2022-10-03T05:23:50.444Z,11.18
2022-10-03T05:29:15.495Z,11.29
2022-10-03T05:34:24.359Z,11.35
2022-10-03T05:39:37.729Z,11.36
2022-10-03T05:44:46.797Z,11.40
2022-10-03T05:49:54.303Z,11.48
2022-10-03T05:55:27.459Z,11.54
2022-10-03T06:00:59.311Z,11.58
2022-10-03T06:06:21.534Z,11.61
2022-10-03T06:12:02.529Z,11.74
2022-10-03T06:17:30.727Z,11.93
2022-10-03T06:23:02.398Z,12.05
2022-10-03T06:28:51.178Z,12.22
2022-10-03T06:34:03.494Z,12.21
2022-10-03T06:39:18.893Z,12.21
2022-10-03T06:44:55.587Z,12.20
2022-10-03T06:50:19.887Z,12.15
2022-10-03T06:55:42.826Z,12.09
2022-10-03T07:01:17.677Z,12.11
2022-10-03T07:06:39.244Z,12.12
2022-10-03T07:12:01.193Z,12.09
2022-10-03T07:17:10.866Z,12.09
2022-10-03T07:22:36.074Z,12.12
2022-10-03T07:28:21.441Z,12.15
2022-10-03T07:34:06.109Z,12.13
2022-10-03T07:39:50.013Z,12.12
2022-10-03T07:45:23.546Z,12.12
2022-10-03T07:50:58.379Z,12.11
2022-10-03T07:56:37.634Z,12.08
2022-10-03T08:02:16.129Z,11.95
2022-10-03T08:07:56.041Z,11.89
2022-10-03T08:13:49.426Z,12.00
2022-10-03T08:19:14.745Z,12.21
2022-10-03T08:24:18.058Z,12.27
2022-10-03T08:29:37.958Z,12.32
2022-10-03T08:35:19.461Z,12.49
2022-10-03T08:40:47.250Z,12.72
2022-10-03T08:45:52.096Z,12.99
2022-10-03T08:51:14.042Z,13.29
2022-10-03T08:56:39.979Z,13.54
2022-10-03T09:02:11.238Z,13.68
2022-10-03T09:07:56.849Z,13.95
2022-10-03T09:13:02.820Z,14.53
2022-10-03T09:18:27.431Z,15.90
2022-10-03T09:23:36.390Z,17.95
2022-10-03T09:29:16.956Z,18.49
2022-10-03T09:34:45.358Z,18.68
2022-10-03T09:39:59.350Z,17.94
2022-10-03T09:45:37.649Z,17.77
2022-10-03T09:51:10.344Z,19.76
2022-10-03T09:56:28.199Z,19.78
2022-10-03T10:02:01.305Z,18.52
2022-10-03T10:07:10.251Z,17.59
2022-10-03T10:12:39.592Z,16.87
2022-10-03T10:17:48.513Z,16.43
2022-10-03T10:23:04.827Z,16.08
2022-10-03T10:28:39.210Z,15.83
2022-10-03T10:34:30.910Z,15.64
2022-10-03T10:40:20.608Z,15.61
2022-10-03T10:45:50.746Z,15.58
2022-10-03T10:51:13.004Z,15.36
2022-10-03T10:56:43.363Z,15.11
2022-10-03T11:02:14.614Z,15.00
2022-10-03T11:07:56.833Z,14.98
2022-10-03T11:13:21.753Z,15.14
2022-10-03T11:19:02.641Z,15.30
2022-10-03T11:24:16.501Z,15.28
2022-10-03T11:29:46.946Z,15.35
2022-10-03T11:35:24.150Z,15.38
2022-10-03T11:40:31.659Z,15.35
2022-10-03T11:45:52.504Z,15.43
2022-10-03T11:51:02.588Z,15.49
2022-10-03T11:56:25.008Z,15.53
2022-10-03T12:01:40.364Z,15.40
2022-10-03T12:07:17.379Z,15.21
2022-10-03T12:12:38.528Z,14.96
2022-10-03T12:17:49.589Z,14.77
2022-10-03T12:23:07.473Z,14.71
2022-10-03T12:28:41.709Z,14.70
2022-10-03T12:33:57.001Z,14.76
2022-10-03T12:39:09.119Z,14.80
2022-10-03T12:44:45.708Z,14.83
2022-10-03T12:50:16.974Z,14.80
2022-10-03T12:55:32.720Z,14.85
2022-10-03T13:01:14.463Z,14.98
2022-10-03T13:07:04.100Z,15.05
2022-10-03T13:12:26.840Z,14.81
2022-10-03T13:17:56.311Z,14.69
2022-10-03T13:23:19.038Z,14.54
2022-10-03T13:28:41.397Z,14.35
2022-10-03T13:33:53.817Z,14.26
2022-10-03T13:39:16.688Z,14.44
2022-10-03T13:44:24.088Z,14.65
2022-10-03T13:49:43.790Z,14.75
2022-10-03T13:54:50.271Z,14.72
2022-10-03T14:00:13.486Z,14.61
2022-10-03T14:05:27.998Z,14.50
2022-10-03T14:10:52.018Z,14.23
2022-10-03T14:16:05.249Z,13.91
2022-10-03T14:21:36.118Z,13.65
2022-10-03T14:26:57.350Z,13.53
2022-10-03T14:32:42.309Z,13.54
2022-10-03T14:37:47.081Z,13.58
2022-10-03T14:43:06.160Z,13.48
2022-10-03T14:48:20.937Z,13.41
2022-10-03T14:53:29.986Z,13.49
2022-10-03T14:58:38.625Z,13.53
2022-10-03T15:04:10.463Z,13.51
2022-10-03T15:09:47.713Z,13.46
2022-10-03T15:15:09.155Z,13.39
2022-10-03T15:20:15.860Z,13.26
2022-10-03T15:25:24.073Z,13.09
2022-10-03T15:30:32.404Z,12.91
2022-10-03T15:35:42.675Z,12.72
2022-10-03T15:41:08.700Z,12.53
2022-10-03T15:46:29.272Z,12.29
2022-10-03T15:51:39.270Z,12.02
2022-10-03T15:56:46.816Z,11.77
2022-10-03T16:01:54.662Z,11.52
2022-10-03T16:07:10.260Z,11.28
2022-10-03T16:12:47.618Z,11.07
2022-10-03T16:18:02.803Z,10.88
2022-10-03T16:23:35.403Z,10.73
2022-10-03T16:28:44.442Z,10.60
2022-10-03T16:33:59.567Z,10.47
2022-10-03T16:39:07.170Z,10.33
2022-10-03T16:44:24.991Z,10.19
2022-10-03T16:50:01.625Z,10.07
2022-10-03T16:55:23.756Z,9.95
2022-10-03T17:00:33.366Z,9.85
2022-10-03T17:05:46.742Z,9.77
2022-10-03T17:10:59.312Z,9.69
2022-10-03T17:16:28.593Z,9.64
2022-10-03T17:21:33.841Z,9.60
2022-10-03T17:26:47.291Z,9.58
2022-10-03T17:32:21.015Z,9.57
2022-10-03T17:38:24.646Z,9.59
2022-10-03T17:43:41.506Z,9.70
2022-10-03T17:49:02.011Z,9.82
2022-10-03T17:54:31.742Z,9.96
2022-10-03T17:59:47.226Z,10.05
2022-10-03T18:05:08.953Z,10.12
2022-10-03T18:10:27.511Z,10.18
2022-10-03T18:15:53.906Z,10.23
2022-10-03T18:21:08.048Z,10.25
2022-10-03T18:26:44.628Z,10.23
2022-10-03T18:32:13.618Z,10.13
2022-10-03T18:37:41.115Z,10.05
2022-10-03T18:42:50.772Z,10.04
2022-10-03T18:48:02.849Z,10.07
2022-10-03T18:53:41.069Z,10.11
2022-10-03T18:59:03.842Z,10.15
2022-10-03T19:04:23.723Z,10.17
2022-10-03T19:09:42.347Z,10.17
2022-10-03T19:15:23.137Z,10.19
2022-10-03T19:20:34.487Z,10.21
2022-10-03T19:25:41.553Z,10.23
2022-10-03T19:30:58.107Z,10.25
2022-10-03T19:36:07.411Z,10.27
2022-10-03T19:41:30.077Z,10.27
2022-10-03T19:46:53.855Z,10.30
2022-10-03T19:52:21.880Z,10.32
2022-10-03T19:57:41.356Z,10.36
2022-10-03T20:02:48.440Z,10.39
2022-10-03T20:08:23.393Z,10.43
2022-10-03T20:13:26.806Z,10.44
2022-10-03T20:18:37.160Z,10.45
2022-10-03T20:23:43.660Z,10.48
2022-10-03T20:28:56.876Z,10.50
2022-10-03T20:34:05.773Z,10.51
2022-10-03T20:39:34.150Z,10.53
2022-10-03T20:45:00.705Z,10.54
2022-10-03T20:50:21.123Z,10.56
2022-10-03T20:55:29.956Z,10.58
2022-10-03T21:00:44.594Z,10.56
2022-10-03T21:05:54.532Z,10.53
2022-10-03T21:11:02.668Z,10.53
2022-10-03T21:16:21.250Z,10.55
2022-10-03T21:21:52.098Z,10.56
2022-10-03T21:27:16.579Z,10.54
2022-10-03T21:32:29.327Z,10.48
2022-10-03T21:37:37.942Z,10.40
2022-10-03T21:43:16.665Z,10.28
2022-10-03T21:48:22.946Z,10.16
2022-10-03T21:54:04.039Z,10.06
2022-10-03T21:59:46.023Z,9.95
2022-10-03T22:04:58.788Z,9.85
2022-10-03T22:10:04.969Z,9.81
2022-10-03T22:15:36.542Z,9.79
2022-10-03T22:20:48.653Z,9.78
2022-10-03T22:26:04.767Z,9.75
2022-10-03T22:31:17.677Z,9.74
2022-10-03T22:36:21.856Z,9.75
2022-10-03T22:41:29.954Z,9.74
2022-10-03T22:46:35.610Z,9.69
2022-10-03T22:51:41.543Z,9.62
2022-10-03T22:57:11.943Z,9.51
2022-10-03T23:02:17.946Z,9.40
2022-10-03T23:07:36.379Z,9.34
2022-10-03T23:12:49.006Z,9.31
2022-10-03T23:18:28.184Z,9.26
2022-10-03T23:24:06.280Z,9.21
2022-10-03T23:29:19.446Z,9.11
2022-10-03T23:34:38.424Z,8.99
2022-10-03T23:40:08.463Z,8.88
2022-10-03T23:45:17.360Z,8.84
2022-10-03T23:50:26.219Z,8.88
2022-10-03T23:55:33.769Z,8.94
